AAY1248 KCHA-KSFB
Flight info
| Callsign | AAY1248 |
|---|---|
| Flight time | 1h 12m |
| Altitude | 31000 |
| Route | GQO THRSR Q79 ZPLEN BIGDE SHREK2 |
| Aircraft | A319/M-SDE3FGHIRWY/LB1 |
Departure
| Time | 2026-05-04 20:53 |
|---|---|
| Airport | Chattanooga Metropolitan Airport (Lovell Field) (KCHA) |
Arrival
| Time | 2026-05-04 22:05 |
|---|---|
| Airport | Orlando Sanford International Airport (KSFB) |
| Time | Latitude | Longitude | Altitude | Speed | Heading |
|---|---|---|---|---|---|
| 2026-05-04 20:24 | 35.03810 | -85.19839 | 691 ft | 0 kts | 133° |
| 2026-05-04 20:44 | 35.03814 | -85.19844 | 691 ft | 4 kts | 133° |
| 2026-05-04 20:45 | 35.03833 | -85.19868 | 682 ft | 4 kts | 133° |
| 2026-05-04 20:45 | 35.03848 | -85.19890 | 688 ft | 4 kts | 112° |
| 2026-05-04 20:45 | 35.03849 | -85.19912 | 685 ft | 4 kts | 32° |
| 2026-05-04 20:45 | 35.03825 | -85.19922 | 686 ft | 4 kts | 11° |
| 2026-05-04 20:46 | 35.03804 | -85.19928 | 687 ft | 0 kts | 17° |
| 2026-05-04 20:48 | 35.03806 | -85.19927 | 688 ft | 1 kts | 17° |
| 2026-05-04 20:49 | 35.03815 | -85.19924 | 687 ft | 2 kts | 17° |
| 2026-05-04 20:49 | 35.03841 | -85.19914 | 688 ft | 6 kts | 17° |
| 2026-05-04 20:49 | 35.03880 | -85.19900 | 685 ft | 6 kts | 16° |
| 2026-05-04 20:49 | 35.03923 | -85.19885 | 689 ft | 6 kts | 16° |
| 2026-05-04 20:50 | 35.03967 | -85.19869 | 687 ft | 7 kts | 16° |
| 2026-05-04 20:50 | 35.04015 | -85.19857 | 689 ft | 7 kts | 0° |
| 2026-05-04 20:50 | 35.04061 | -85.19879 | 690 ft | 7 kts | 331° |
| 2026-05-04 20:50 | 35.04104 | -85.19910 | 687 ft | 7 kts | 329° |
| 2026-05-04 20:51 | 35.04147 | -85.19940 | 688 ft | 7 kts | 329° |
| 2026-05-04 20:51 | 35.04181 | -85.19973 | 693 ft | 6 kts | 311° |
| 2026-05-04 20:51 | 35.04195 | -85.20006 | 689 ft | 3 kts | 291° |
| 2026-05-04 20:51 | 35.04197 | -85.20032 | 693 ft | 3 kts | 265° |
| 2026-05-04 20:52 | 35.04170 | -85.20056 | 694 ft | 8 kts | 203° |
| 2026-05-04 20:52 | 35.03934 | -85.20143 | 689 ft | 72 kts | 196° |
| 2026-05-04 20:52 | 35.03241 | -85.20395 | 690 ft | 133 kts | 197° |
| 2026-05-04 20:52 | 35.02304 | -85.20723 | 1160 ft | 140 kts | 196° |
| 2026-05-04 20:53 | 35.01361 | -85.21062 | 1862 ft | 142 kts | 199° |
| 2026-05-04 20:53 | 35.00348 | -85.21419 | 2313 ft | 162 kts | 196° |
| 2026-05-04 20:53 | 34.99164 | -85.21479 | 2631 ft | 185 kts | 167° |
| 2026-05-04 20:53 | 34.97906 | -85.20837 | 3083 ft | 206 kts | 156° |
| 2026-05-04 20:54 | 34.96573 | -85.19965 | 3563 ft | 226 kts | 155° |
| 2026-05-04 20:54 | 34.95127 | -85.19031 | 4113 ft | 246 kts | 156° |
| 2026-05-04 20:54 | 34.93536 | -85.18078 | 4771 ft | 260 kts | 157° |
| 2026-05-04 20:54 | 34.91884 | -85.17107 | 5638 ft | 267 kts | 157° |
| 2026-05-04 20:55 | 34.90195 | -85.16127 | 6533 ft | 271 kts | 157° |
| 2026-05-04 20:55 | 34.88484 | -85.15152 | 7435 ft | 272 kts | 158° |
| 2026-05-04 20:55 | 34.86758 | -85.14173 | 8343 ft | 275 kts | 158° |
| 2026-05-04 20:55 | 34.85019 | -85.13183 | 9279 ft | 276 kts | 159° |
| 2026-05-04 20:56 | 34.83273 | -85.12186 | 10161 ft | 280 kts | 159° |
| 2026-05-04 20:56 | 34.81438 | -85.11137 | 10472 ft | 303 kts | 158° |
| 2026-05-04 20:56 | 34.79477 | -85.10013 | 10937 ft | 318 kts | 158° |
| 2026-05-04 20:56 | 34.77454 | -85.08845 | 11591 ft | 325 kts | 158° |
| 2026-05-04 20:57 | 34.75392 | -85.07650 | 12271 ft | 332 kts | 158° |
| 2026-05-04 20:57 | 34.73287 | -85.06428 | 12944 ft | 339 kts | 158° |
| 2026-05-04 20:57 | 34.71139 | -85.05182 | 13638 ft | 345 kts | 158° |
| 2026-05-04 20:57 | 34.68951 | -85.03914 | 14253 ft | 351 kts | 157° |
| 2026-05-04 20:58 | 34.66736 | -85.02630 | 14864 ft | 354 kts | 158° |
| 2026-05-04 20:58 | 34.64530 | -85.01354 | 15475 ft | 358 kts | 158° |
| 2026-05-04 20:58 | 34.62264 | -85.00047 | 16118 ft | 362 kts | 158° |
| 2026-05-04 20:58 | 34.59981 | -84.98732 | 16763 ft | 365 kts | 158° |
| 2026-05-04 20:59 | 34.57667 | -84.97404 | 17411 ft | 369 kts | 158° |
| 2026-05-04 20:59 | 34.55337 | -84.96066 | 18057 ft | 373 kts | 158° |
| 2026-05-04 20:59 | 34.52979 | -84.94711 | 18639 ft | 377 kts | 159° |
| 2026-05-04 20:59 | 34.50599 | -84.93341 | 19178 ft | 380 kts | 159° |
| 2026-05-04 21:00 | 34.48198 | -84.91961 | 19736 ft | 384 kts | 159° |
| 2026-05-04 21:00 | 34.45773 | -84.90569 | 20289 ft | 388 kts | 159° |
| 2026-05-04 21:00 | 34.43321 | -84.89163 | 20841 ft | 392 kts | 159° |
| 2026-05-04 21:00 | 34.40845 | -84.87746 | 21380 ft | 395 kts | 159° |
| 2026-05-04 21:01 | 34.38346 | -84.86314 | 21909 ft | 399 kts | 159° |
| 2026-05-04 21:01 | 34.35824 | -84.84870 | 22424 ft | 403 kts | 159° |
| 2026-05-04 21:01 | 34.33310 | -84.83429 | 22958 ft | 406 kts | 159° |
| 2026-05-04 21:01 | 34.30743 | -84.81958 | 23483 ft | 410 kts | 159° |
| 2026-05-04 21:02 | 34.28153 | -84.80477 | 23928 ft | 414 kts | 159° |
| 2026-05-04 21:02 | 34.25539 | -84.78984 | 24354 ft | 417 kts | 159° |
| 2026-05-04 21:02 | 34.22910 | -84.77482 | 24784 ft | 419 kts | 159° |
| 2026-05-04 21:02 | 34.20263 | -84.75972 | 25213 ft | 422 kts | 159° |
| 2026-05-04 21:03 | 34.17602 | -84.74452 | 25640 ft | 425 kts | 159° |
| 2026-05-04 21:03 | 34.14922 | -84.72921 | 26043 ft | 427 kts | 159° |
| 2026-05-04 21:03 | 34.12223 | -84.71382 | 26436 ft | 430 kts | 159° |
| 2026-05-04 21:03 | 34.09511 | -84.69838 | 26826 ft | 433 kts | 159° |
| 2026-05-04 21:04 | 34.06778 | -84.68286 | 27208 ft | 436 kts | 159° |
| 2026-05-04 21:04 | 34.04021 | -84.66722 | 27582 ft | 438 kts | 159° |
| 2026-05-04 21:04 | 34.01253 | -84.65154 | 27959 ft | 441 kts | 159° |
| 2026-05-04 21:04 | 33.98465 | -84.63574 | 28340 ft | 444 kts | 159° |
| 2026-05-04 21:05 | 33.95657 | -84.61984 | 28721 ft | 447 kts | 159° |
| 2026-05-04 21:05 | 33.92834 | -84.60387 | 29084 ft | 450 kts | 159° |
| 2026-05-04 21:05 | 33.89997 | -84.58780 | 29449 ft | 452 kts | 159° |
| 2026-05-04 21:05 | 33.87142 | -84.57163 | 29817 ft | 455 kts | 159° |
| 2026-05-04 21:06 | 33.84271 | -84.55538 | 30157 ft | 458 kts | 159° |
| 2026-05-04 21:06 | 33.81379 | -84.53902 | 30447 ft | 460 kts | 159° |
| 2026-05-04 21:06 | 33.78469 | -84.52257 | 30767 ft | 461 kts | 159° |
| 2026-05-04 21:06 | 33.75556 | -84.50617 | 30984 ft | 463 kts | 159° |
| 2026-05-04 21:07 | 33.72668 | -84.48990 | 31048 ft | 451 kts | 159° |
| 2026-05-04 21:07 | 33.69877 | -84.47412 | 31056 ft | 437 kts | 160° |
| 2026-05-04 21:07 | 33.64433 | -84.44348 | 31052 ft | 429 kts | 160° |
| 2026-05-04 21:08 | 33.58893 | -84.41889 | 31053 ft | 424 kts | 167° |
| 2026-05-04 21:08 | 33.53299 | -84.39643 | 31049 ft | 424 kts | 167° |
| 2026-05-04 21:09 | 33.47701 | -84.37384 | 31081 ft | 425 kts | 167° |
| 2026-05-04 21:09 | 33.42094 | -84.35134 | 31079 ft | 425 kts | 167° |
| 2026-05-04 21:10 | 33.36528 | -84.32914 | 31075 ft | 424 kts | 167° |
| 2026-05-04 21:10 | 33.30929 | -84.30685 | 31076 ft | 424 kts | 167° |
| 2026-05-04 21:11 | 33.25325 | -84.28456 | 31070 ft | 424 kts | 167° |
| 2026-05-04 21:11 | 33.19731 | -84.26219 | 31068 ft | 424 kts | 167° |
| 2026-05-04 21:12 | 33.14124 | -84.23986 | 31059 ft | 424 kts | 167° |
| 2026-05-04 21:12 | 33.08529 | -84.21757 | 31064 ft | 424 kts | 167° |
| 2026-05-04 21:13 | 33.02963 | -84.19539 | 31060 ft | 424 kts | 167° |
| 2026-05-04 21:13 | 32.97363 | -84.17323 | 31046 ft | 424 kts | 167° |
| 2026-05-04 21:14 | 32.91768 | -84.15104 | 31050 ft | 424 kts | 167° |
| 2026-05-04 21:14 | 32.86162 | -84.12879 | 31054 ft | 424 kts | 167° |
| 2026-05-04 21:15 | 32.80555 | -84.10665 | 31051 ft | 424 kts | 167° |
| 2026-05-04 21:15 | 32.74957 | -84.08461 | 31030 ft | 424 kts | 167° |
| 2026-05-04 21:16 | 32.69341 | -84.06251 | 31033 ft | 425 kts | 167° |
| 2026-05-04 21:16 | 32.63730 | -84.04042 | 31039 ft | 425 kts | 167° |
| 2026-05-04 21:17 | 32.58112 | -84.01841 | 31051 ft | 425 kts | 167° |
| 2026-05-04 21:17 | 32.52491 | -83.99634 | 31053 ft | 426 kts | 167° |
| 2026-05-04 21:18 | 32.46872 | -83.97426 | 31037 ft | 426 kts | 168° |
| 2026-05-04 21:18 | 32.41240 | -83.95222 | 31040 ft | 426 kts | 168° |
| 2026-05-04 21:19 | 32.35607 | -83.93023 | 31049 ft | 426 kts | 168° |
| 2026-05-04 21:19 | 32.30009 | -83.90845 | 31047 ft | 427 kts | 168° |
| 2026-05-04 21:20 | 32.24375 | -83.88641 | 31059 ft | 426 kts | 168° |
| 2026-05-04 21:20 | 32.18745 | -83.86446 | 31034 ft | 426 kts | 168° |
| 2026-05-04 21:21 | 32.13105 | -83.84257 | 31047 ft | 427 kts | 168° |
| 2026-05-04 21:21 | 32.07460 | -83.82064 | 31052 ft | 427 kts | 168° |
| 2026-05-04 21:22 | 32.01805 | -83.79874 | 31054 ft | 428 kts | 168° |
| 2026-05-04 21:22 | 31.96150 | -83.77681 | 31059 ft | 428 kts | 168° |
| 2026-05-04 21:23 | 31.90494 | -83.75491 | 31037 ft | 428 kts | 169° |
| 2026-05-04 21:23 | 31.84829 | -83.73307 | 31045 ft | 428 kts | 169° |
| 2026-05-04 21:24 | 31.79200 | -83.71137 | 31051 ft | 429 kts | 169° |
| 2026-05-04 21:24 | 31.73529 | -83.68952 | 31054 ft | 429 kts | 169° |
| 2026-05-04 21:25 | 31.67932 | -83.66437 | 31061 ft | 438 kts | 158° |
| 2026-05-04 21:25 | 31.62642 | -83.62834 | 31042 ft | 441 kts | 157° |
| 2026-05-04 21:26 | 31.57306 | -83.59201 | 31055 ft | 443 kts | 157° |
| 2026-05-04 21:26 | 31.51968 | -83.55569 | 31058 ft | 444 kts | 157° |
| 2026-05-04 21:27 | 31.47531 | -83.52554 | 31053 ft | 443 kts | 157° |
| 2026-05-04 21:27 | 31.41300 | -83.48320 | 31062 ft | 442 kts | 157° |
| 2026-05-04 21:28 | 31.36868 | -83.45325 | 31067 ft | 442 kts | 157° |
| 2026-05-04 21:28 | 31.31562 | -83.41740 | 31027 ft | 443 kts | 158° |
| 2026-05-04 21:29 | 31.26227 | -83.38130 | 31029 ft | 444 kts | 158° |
| 2026-05-04 21:29 | 31.20878 | -83.34513 | 31025 ft | 444 kts | 158° |
| 2026-05-04 21:30 | 31.15522 | -83.30897 | 31024 ft | 444 kts | 158° |
| 2026-05-04 21:30 | 31.09303 | -83.26699 | 31020 ft | 445 kts | 158° |
| 2026-05-04 21:31 | 31.02106 | -83.21867 | 31018 ft | 448 kts | 158° |
| 2026-05-04 21:32 | 30.96693 | -83.18243 | 31021 ft | 448 kts | 158° |
| 2026-05-04 21:32 | 30.91327 | -83.14643 | 31048 ft | 448 kts | 158° |
| 2026-05-04 21:33 | 30.85931 | -83.11023 | 31067 ft | 447 kts | 158° |
| 2026-05-04 21:33 | 30.80544 | -83.07422 | 31072 ft | 446 kts | 158° |
| 2026-05-04 21:34 | 30.75163 | -83.03838 | 31045 ft | 446 kts | 158° |
| 2026-05-04 21:34 | 30.69790 | -83.00311 | 31063 ft | 444 kts | 160° |
| 2026-05-04 21:35 | 30.64264 | -82.97181 | 31079 ft | 440 kts | 163° |
| 2026-05-04 21:35 | 30.58677 | -82.94293 | 31090 ft | 440 kts | 164° |
| 2026-05-04 21:36 | 30.53096 | -82.91367 | 31089 ft | 440 kts | 163° |
| 2026-05-04 21:36 | 30.47536 | -82.88362 | 31090 ft | 441 kts | 163° |
| 2026-05-04 21:37 | 30.41989 | -82.85335 | 31101 ft | 441 kts | 163° |
| 2026-05-04 21:37 | 30.36431 | -82.82319 | 31100 ft | 441 kts | 163° |
| 2026-05-04 21:38 | 30.30873 | -82.79324 | 31089 ft | 441 kts | 163° |
| 2026-05-04 21:38 | 30.28098 | -82.77827 | 30867 ft | 436 kts | 163° |
| 2026-05-04 21:38 | 30.25372 | -82.76353 | 30619 ft | 431 kts | 163° |
| 2026-05-04 21:38 | 30.22696 | -82.74910 | 30350 ft | 428 kts | 163° |
| 2026-05-04 21:39 | 30.19999 | -82.73458 | 30114 ft | 427 kts | 163° |
| 2026-05-04 21:39 | 30.17311 | -82.72016 | 29778 ft | 425 kts | 163° |
| 2026-05-04 21:39 | 30.14644 | -82.70586 | 29449 ft | 420 kts | 163° |
| 2026-05-04 21:39 | 30.12004 | -82.69170 | 29001 ft | 417 kts | 162° |
| 2026-05-04 21:40 | 30.09381 | -82.67764 | 28566 ft | 415 kts | 162° |
| 2026-05-04 21:40 | 30.06768 | -82.66364 | 28136 ft | 413 kts | 162° |
| 2026-05-04 21:40 | 30.04169 | -82.64974 | 27700 ft | 411 kts | 162° |
| 2026-05-04 21:40 | 30.01582 | -82.63591 | 27255 ft | 409 kts | 162° |
| 2026-05-04 21:41 | 29.99007 | -82.62213 | 26815 ft | 407 kts | 162° |
| 2026-05-04 21:41 | 29.96429 | -82.60835 | 26353 ft | 406 kts | 162° |
| 2026-05-04 21:41 | 29.93869 | -82.59469 | 25893 ft | 405 kts | 162° |
| 2026-05-04 21:41 | 29.91312 | -82.58104 | 25411 ft | 405 kts | 161° |
| 2026-05-04 21:42 | 29.88761 | -82.56743 | 24926 ft | 404 kts | 161° |
| 2026-05-04 21:42 | 29.86212 | -82.55382 | 24454 ft | 404 kts | 161° |
| 2026-05-04 21:42 | 29.83657 | -82.54016 | 23950 ft | 404 kts | 161° |
| 2026-05-04 21:42 | 29.81106 | -82.52653 | 23407 ft | 405 kts | 161° |
| 2026-05-04 21:43 | 29.78577 | -82.51302 | 22892 ft | 395 kts | 161° |
| 2026-05-04 21:43 | 29.76154 | -82.50007 | 22415 ft | 383 kts | 161° |
| 2026-05-04 21:43 | 29.73769 | -82.48733 | 21954 ft | 372 kts | 161° |
| 2026-05-04 21:43 | 29.71454 | -82.47498 | 21501 ft | 362 kts | 161° |
| 2026-05-04 21:44 | 29.69203 | -82.46300 | 21081 ft | 352 kts | 161° |
| 2026-05-04 21:44 | 29.67009 | -82.45133 | 20665 ft | 343 kts | 161° |
| 2026-05-04 21:44 | 29.64857 | -82.43993 | 20263 ft | 341 kts | 161° |
| 2026-05-04 21:44 | 29.62697 | -82.42852 | 19854 ft | 341 kts | 160° |
| 2026-05-04 21:45 | 29.60534 | -82.41708 | 19434 ft | 341 kts | 160° |
| 2026-05-04 21:45 | 29.58378 | -82.40565 | 19037 ft | 341 kts | 160° |
| 2026-05-04 21:45 | 29.56222 | -82.39424 | 18641 ft | 342 kts | 160° |
| 2026-05-04 21:45 | 29.54060 | -82.38280 | 18224 ft | 342 kts | 159° |
| 2026-05-04 21:46 | 29.51900 | -82.37136 | 17802 ft | 341 kts | 159° |
| 2026-05-04 21:46 | 29.49747 | -82.35994 | 17385 ft | 341 kts | 159° |
| 2026-05-04 21:46 | 29.47595 | -82.34855 | 16940 ft | 340 kts | 159° |
| 2026-05-04 21:46 | 29.45447 | -82.33718 | 16549 ft | 339 kts | 159° |
| 2026-05-04 21:47 | 29.43311 | -82.32588 | 16160 ft | 338 kts | 158° |
| 2026-05-04 21:47 | 29.41178 | -82.31462 | 15773 ft | 337 kts | 158° |
| 2026-05-04 21:47 | 29.39070 | -82.30351 | 15394 ft | 337 kts | 158° |
| 2026-05-04 21:47 | 29.36946 | -82.29230 | 15006 ft | 336 kts | 158° |
| 2026-05-04 21:48 | 29.34826 | -82.28111 | 14619 ft | 335 kts | 158° |
| 2026-05-04 21:48 | 29.32709 | -82.26994 | 14242 ft | 335 kts | 157° |
| 2026-05-04 21:48 | 29.30568 | -82.25863 | 13862 ft | 334 kts | 157° |
| 2026-05-04 21:48 | 29.28491 | -82.24767 | 13457 ft | 333 kts | 157° |
| 2026-05-04 21:49 | 29.26368 | -82.23648 | 13075 ft | 330 kts | 157° |
| 2026-05-04 21:49 | 29.24312 | -82.22567 | 12700 ft | 329 kts | 158° |
| 2026-05-04 21:49 | 29.22209 | -82.21463 | 12314 ft | 327 kts | 158° |
| 2026-05-04 21:49 | 29.20179 | -82.20398 | 11943 ft | 325 kts | 158° |
| 2026-05-04 21:50 | 29.18133 | -82.19324 | 11555 ft | 323 kts | 158° |
| 2026-05-04 21:50 | 29.16134 | -82.18156 | 11165 ft | 323 kts | 149° |
| 2026-05-04 21:50 | 29.14428 | -82.16485 | 10802 ft | 323 kts | 133° |
| 2026-05-04 21:50 | 29.13111 | -82.14447 | 10522 ft | 314 kts | 127° |
| 2026-05-04 21:51 | 29.11877 | -82.12414 | 10236 ft | 309 kts | 127° |
| 2026-05-04 21:51 | 29.10654 | -82.10407 | 9951 ft | 306 kts | 127° |
| 2026-05-04 21:51 | 29.09441 | -82.08421 | 9636 ft | 303 kts | 127° |
| 2026-05-04 21:51 | 29.08236 | -82.06452 | 9349 ft | 301 kts | 127° |
| 2026-05-04 21:52 | 29.07040 | -82.04499 | 9066 ft | 299 kts | 127° |
| 2026-05-04 21:52 | 29.05850 | -82.02560 | 8777 ft | 296 kts | 127° |
| 2026-05-04 21:52 | 29.04676 | -82.00641 | 8509 ft | 294 kts | 127° |
| 2026-05-04 21:52 | 29.03506 | -81.98735 | 8235 ft | 291 kts | 127° |
| 2026-05-04 21:53 | 29.02345 | -81.96845 | 7960 ft | 290 kts | 127° |
| 2026-05-04 21:53 | 29.01192 | -81.94970 | 7687 ft | 288 kts | 127° |
| 2026-05-04 21:53 | 29.00048 | -81.93109 | 7416 ft | 283 kts | 127° |
| 2026-05-04 21:53 | 28.98928 | -81.91286 | 7159 ft | 279 kts | 126° |
| 2026-05-04 21:54 | 28.97816 | -81.89485 | 6898 ft | 276 kts | 126° |
| 2026-05-04 21:54 | 28.96714 | -81.87708 | 6640 ft | 273 kts | 126° |
| 2026-05-04 21:54 | 28.95623 | -81.85951 | 6377 ft | 270 kts | 126° |
| 2026-05-04 21:54 | 28.94547 | -81.84217 | 6121 ft | 267 kts | 125° |
| 2026-05-04 21:55 | 28.93481 | -81.82498 | 5865 ft | 265 kts | 125° |
| 2026-05-04 21:55 | 28.92408 | -81.80773 | 5610 ft | 267 kts | 125° |
| 2026-05-04 21:55 | 28.91336 | -81.79046 | 5359 ft | 266 kts | 125° |
| 2026-05-04 21:55 | 28.90286 | -81.77355 | 5128 ft | 263 kts | 125° |
| 2026-05-04 21:56 | 28.89326 | -81.75589 | 5007 ft | 262 kts | 117° |
| 2026-05-04 21:56 | 28.88542 | -81.73708 | 5005 ft | 262 kts | 113° |
| 2026-05-04 21:56 | 28.87840 | -81.71804 | 4685 ft | 261 kts | 112° |
| 2026-05-04 21:56 | 28.87165 | -81.69903 | 4361 ft | 257 kts | 111° |
| 2026-05-04 21:57 | 28.86494 | -81.68010 | 4165 ft | 256 kts | 111° |
| 2026-05-04 21:57 | 28.85815 | -81.66119 | 3969 ft | 258 kts | 112° |
| 2026-05-04 21:57 | 28.85133 | -81.64242 | 3785 ft | 253 kts | 111° |
| 2026-05-04 21:57 | 28.84452 | -81.62391 | 3612 ft | 255 kts | 112° |
| 2026-05-04 21:58 | 28.83760 | -81.60529 | 3436 ft | 254 kts | 112° |
| 2026-05-04 21:58 | 28.83066 | -81.58670 | 3250 ft | 254 kts | 113° |
| 2026-05-04 21:58 | 28.82389 | -81.56863 | 3137 ft | 240 kts | 112° |
| 2026-05-04 21:58 | 28.81752 | -81.55159 | 3039 ft | 227 kts | 112° |
| 2026-05-04 21:59 | 28.81149 | -81.53547 | 2939 ft | 215 kts | 112° |
| 2026-05-04 21:59 | 28.80572 | -81.52015 | 2855 ft | 209 kts | 112° |
| 2026-05-04 21:59 | 28.80001 | -81.50493 | 2764 ft | 209 kts | 112° |
| 2026-05-04 21:59 | 28.79428 | -81.48967 | 2673 ft | 210 kts | 112° |
| 2026-05-04 22:00 | 28.78851 | -81.47432 | 2578 ft | 210 kts | 111° |
| 2026-05-04 22:00 | 28.78290 | -81.45918 | 2487 ft | 205 kts | 109° |
| 2026-05-04 22:00 | 28.78102 | -81.44324 | 2383 ft | 204 kts | 89° |
| 2026-05-04 22:00 | 28.78121 | -81.42709 | 2253 ft | 204 kts | 88° |
| 2026-05-04 22:01 | 28.78133 | -81.41118 | 2128 ft | 193 kts | 89° |
| 2026-05-04 22:01 | 28.78139 | -81.39620 | 2048 ft | 186 kts | 90° |
| 2026-05-04 22:01 | 28.78143 | -81.38153 | 2009 ft | 183 kts | 89° |
| 2026-05-04 22:01 | 28.78147 | -81.36758 | 1984 ft | 171 kts | 90° |
| 2026-05-04 22:02 | 28.78151 | -81.35440 | 1797 ft | 163 kts | 91° |
| 2026-05-04 22:02 | 28.78154 | -81.34168 | 1600 ft | 158 kts | 90° |
| 2026-05-04 22:02 | 28.78157 | -81.32954 | 1399 ft | 148 kts | 90° |
| 2026-05-04 22:02 | 28.78160 | -81.31813 | 1229 ft | 140 kts | 89° |
| 2026-05-04 22:03 | 28.78162 | -81.30751 | 1039 ft | 131 kts | 90° |
| 2026-05-04 22:03 | 28.78164 | -81.29722 | 859 ft | 132 kts | 89° |
| 2026-05-04 22:03 | 28.78166 | -81.28695 | 696 ft | 129 kts | 90° |
| 2026-05-04 22:03 | 28.78168 | -81.27698 | 517 ft | 129 kts | 90° |
| 2026-05-04 22:04 | 28.78174 | -81.26687 | 387 ft | 129 kts | 89° |
| 2026-05-04 22:04 | 28.78172 | -81.25662 | 188 ft | 127 kts | 89° |
| 2026-05-04 22:04 | 28.78175 | -81.24677 | 67 ft | 115 kts | 89° |
| 2026-05-04 22:04 | 28.78176 | -81.23918 | 65 ft | 72 kts | 90° |
| 2026-05-04 22:05 | 28.78174 | -81.23662 | 66 ft | 15 kts | 98° |
| 2026-05-04 22:05 | 28.78098 | -81.23635 | 63 ft | 8 kts | 186° |
| 2026-05-04 22:05 | 28.78068 | -81.23684 | 65 ft | 8 kts | 261° |
| 2026-05-04 22:05 | 28.78066 | -81.23752 | 65 ft | 9 kts | 270° |
| 2026-05-04 22:06 | 28.78066 | -81.23825 | 65 ft | 9 kts | 269° |
| 2026-05-04 22:06 | 28.78065 | -81.23901 | 65 ft | 10 kts | 269° |
| 2026-05-04 22:06 | 28.78065 | -81.23983 | 65 ft | 11 kts | 270° |
| 2026-05-04 22:06 | 28.78065 | -81.24084 | 65 ft | 15 kts | 270° |
| 2026-05-04 22:07 | 28.78065 | -81.24209 | 64 ft | 16 kts | 269° |
| 2026-05-04 22:07 | 28.78065 | -81.24338 | 64 ft | 17 kts | 270° |
| 2026-05-04 22:07 | 28.78065 | -81.24468 | 63 ft | 15 kts | 270° |
| 2026-05-04 22:07 | 28.78022 | -81.24535 | 58 ft | 12 kts | 179° |
| 2026-05-04 22:08 | 28.77939 | -81.24534 | 60 ft | 12 kts | 180° |
| 2026-05-04 22:08 | 28.77859 | -81.24535 | 58 ft | 9 kts | 181° |
| 2026-05-04 22:08 | 28.77795 | -81.24535 | 58 ft | 9 kts | 174° |
| 2026-05-04 22:08 | 28.77763 | -81.24484 | 63 ft | 9 kts | 89° |
| 2026-05-04 22:09 | 28.77763 | -81.24410 | 64 ft | 8 kts | 91° |
| 2026-05-04 22:09 | 28.77748 | -81.24375 | 58 ft | 5 kts | 161° |
| 2026-05-04 22:09 | 28.77714 | -81.24367 | 58 ft | 6 kts | 168° |
| 2026-05-04 22:09 | 28.77686 | -81.24361 | 58 ft | 3 kts | 168° |
| 2026-05-04 22:10 | 28.77675 | -81.24359 | 62 ft | 1 kts | 169° |
| 2026-05-04 22:10 | 28.77674 | -81.24358 | 64 ft | 0 kts | 169° |